createdAt,value
2018-12-17T00:00:19.585Z,1.20
2018-12-17T00:01:19.588Z,1.30
2018-12-17T00:02:19.591Z,1.40
2018-12-17T00:03:19.594Z,1.20
2018-12-17T00:04:19.596Z,1.50
2018-12-17T00:05:19.599Z,1.40
2018-12-17T00:06:19.609Z,1.40
2018-12-17T00:07:19.606Z,1.30
2018-12-17T00:08:19.611Z,1.40
2018-12-17T00:09:19.611Z,1.20
2018-12-17T00:10:19.614Z,1.20
2018-12-17T00:11:19.619Z,1.20
2018-12-17T00:12:19.618Z,1.40
2018-12-17T00:13:19.624Z,1.20
2018-12-17T00:14:19.626Z,1.20
2018-12-17T00:15:19.630Z,1.10
2018-12-17T00:16:19.632Z,1.10
2018-12-17T00:17:19.636Z,1.10
2018-12-17T00:18:19.638Z,1.00
2018-12-17T00:19:19.640Z,1.10
2018-12-17T00:20:19.642Z,1.10
2018-12-17T00:21:19.646Z,1.20
2018-12-17T00:22:19.657Z,1.20
2018-12-17T00:23:19.652Z,1.20
2018-12-17T00:24:19.655Z,1.00
2018-12-17T00:25:19.659Z,1.20
2018-12-17T00:26:19.660Z,1.00
2018-12-17T00:27:19.663Z,1.00
2018-12-17T00:28:19.667Z,1.10
2018-12-17T00:29:19.669Z,0.90
2018-12-17T00:30:19.673Z,1.10
2018-12-17T00:31:19.675Z,1.00
2018-12-17T00:32:19.675Z,1.20
2018-12-17T00:33:19.680Z,1.00
2018-12-17T00:34:19.685Z,1.10
2018-12-17T00:35:19.693Z,1.20
2018-12-17T00:36:19.694Z,1.10
2018-12-17T00:37:19.703Z,1.10
2018-12-17T00:38:19.696Z,1.00
2018-12-17T00:39:19.699Z,1.00
2018-12-17T00:40:19.702Z,1.00
2018-12-17T00:41:19.704Z,1.10
2018-12-17T00:42:19.709Z,0.90
2018-12-17T00:43:19.711Z,1.10
2018-12-17T00:44:19.713Z,0.90
2018-12-17T00:45:19.715Z,1.00
2018-12-17T00:46:19.768Z,0.80
2018-12-17T00:47:19.722Z,0.70
2018-12-17T00:48:19.724Z,0.90
2018-12-17T00:49:19.728Z,1.00
2018-12-17T00:50:19.730Z,0.90
2018-12-17T00:51:19.733Z,1.00
2018-12-17T00:52:19.735Z,1.00
2018-12-17T00:53:19.738Z,0.90
2018-12-17T00:54:19.741Z,0.90
2018-12-17T00:55:19.745Z,0.90
2018-12-17T00:56:19.747Z,0.90
2018-12-17T00:57:19.752Z,0.90
2018-12-17T00:58:19.753Z,1.00
2018-12-17T00:59:19.756Z,0.90
2018-12-17T01:00:19.758Z,0.90
2018-12-17T01:01:19.763Z,0.90
2018-12-17T01:02:19.766Z,1.00
2018-12-17T01:03:19.775Z,0.80
2018-12-17T01:04:19.776Z,1.10
2018-12-17T01:05:19.776Z,0.70
2018-12-17T01:06:19.826Z,0.80
2018-12-17T01:07:19.780Z,0.80
2018-12-17T01:08:19.781Z,0.80
2018-12-17T01:09:19.786Z,0.80
2018-12-17T01:10:19.789Z,0.80
2018-12-17T01:11:19.792Z,0.80
2018-12-17T01:12:19.798Z,0.80
2018-12-17T01:13:19.814Z,0.70
2018-12-17T01:14:19.800Z,0.70
2018-12-17T01:15:19.837Z,0.80
2018-12-17T01:16:19.804Z,0.70
2018-12-17T01:17:19.808Z,0.70
2018-12-17T01:18:19.812Z,0.70
2018-12-17T01:19:19.814Z,0.70
2018-12-17T01:20:19.816Z,0.60
2018-12-17T01:21:19.819Z,0.70
2018-12-17T01:22:19.822Z,0.60
2018-12-17T01:23:19.825Z,0.70
2018-12-17T01:24:19.827Z,0.80
2018-12-17T01:25:19.830Z,0.80
2018-12-17T01:26:19.835Z,1.10
2018-12-17T01:27:19.837Z,0.90
2018-12-17T01:28:22.282Z,0.80
2018-12-17T01:29:19.842Z,0.50
2018-12-17T01:30:19.845Z,0.70
2018-12-17T01:31:19.849Z,0.70
2018-12-17T01:32:19.851Z,0.70
2018-12-17T01:33:19.857Z,0.60
2018-12-17T01:34:19.857Z,0.70
2018-12-17T01:35:19.860Z,0.60
2018-12-17T01:36:19.862Z,0.70
2018-12-17T01:37:19.864Z,0.50
2018-12-17T01:38:19.869Z,0.80
2018-12-17T01:39:19.875Z,0.70
2018-12-17T01:40:19.874Z,0.80
2018-12-17T01:41:19.890Z,0.70
2018-12-17T01:42:19.881Z,0.70
2018-12-17T01:43:19.886Z,0.60
2018-12-17T01:44:19.885Z,0.60
2018-12-17T01:45:19.888Z,0.80
2018-12-17T01:46:19.892Z,0.60
2018-12-17T01:47:19.895Z,0.60
2018-12-17T01:48:19.897Z,0.60
2018-12-17T01:49:19.899Z,0.70
2018-12-17T01:50:19.903Z,0.50
2018-12-17T01:51:19.906Z,0.70
2018-12-17T01:52:19.908Z,0.70
2018-12-17T01:53:19.911Z,0.60
2018-12-17T01:54:19.915Z,0.60
2018-12-17T01:55:19.918Z,0.60
2018-12-17T01:56:19.919Z,0.60
2018-12-17T01:57:19.922Z,0.60
2018-12-17T01:58:19.926Z,0.60
2018-12-17T01:59:19.929Z,0.70
2018-12-17T02:00:19.930Z,0.60
2018-12-17T02:01:19.931Z,0.60
2018-12-17T02:02:19.937Z,0.60
2018-12-17T02:03:19.940Z,0.60
2018-12-17T02:04:19.942Z,0.60
2018-12-17T02:05:19.946Z,0.50
2018-12-17T02:06:19.999Z,0.60
2018-12-17T02:07:19.954Z,0.70
2018-12-17T02:08:19.954Z,0.50
2018-12-17T02:09:19.957Z,0.60
2018-12-17T02:10:19.961Z,0.60
2018-12-17T02:11:19.964Z,0.50
2018-12-17T02:12:19.967Z,0.60
2018-12-17T02:13:19.969Z,0.60
2018-12-17T02:14:19.972Z,0.60
2018-12-17T02:15:19.976Z,0.60
2018-12-17T02:16:19.983Z,0.60
2018-12-17T02:17:19.981Z,0.50
2018-12-17T02:18:19.983Z,0.50
2018-12-17T02:19:19.989Z,0.70
2018-12-17T02:20:19.989Z,0.50
2018-12-17T02:21:19.992Z,0.50
2018-12-17T02:22:19.995Z,0.60
2018-12-17T02:23:19.998Z,0.60
2018-12-17T02:24:20.001Z,0.50
2018-12-17T02:25:20.004Z,0.50
2018-12-17T02:26:20.007Z,0.50
2018-12-17T02:27:20.010Z,0.50
2018-12-17T02:28:20.013Z,0.60
2018-12-17T02:29:20.018Z,0.40
2018-12-17T02:30:20.019Z,0.50
2018-12-17T02:31:20.024Z,0.60
2018-12-17T02:32:20.024Z,0.60
2018-12-17T02:33:20.028Z,0.40
2018-12-17T02:34:20.031Z,0.40
2018-12-17T02:35:20.034Z,0.50
2018-12-17T02:36:20.039Z,0.60
2018-12-17T02:37:20.036Z,0.50
2018-12-17T02:38:20.041Z,0.40
2018-12-17T02:39:20.052Z,0.50
2018-12-17T02:40:20.056Z,0.50
2018-12-17T02:41:20.052Z,0.40
2018-12-17T02:42:20.057Z,0.50
2018-12-17T02:43:20.068Z,0.50
2018-12-17T02:44:20.065Z,0.50
2018-12-17T02:45:20.062Z,0.50
2018-12-17T02:46:20.070Z,0.50
2018-12-17T02:47:20.067Z,0.40
2018-12-17T02:48:20.082Z,0.30
2018-12-17T02:49:20.081Z,0.50
2018-12-17T02:50:20.089Z,0.40
2018-12-17T02:51:20.079Z,0.60
2018-12-17T02:52:20.086Z,0.40
2018-12-17T02:53:20.083Z,0.50
2018-12-17T02:54:20.087Z,0.40
2018-12-17T02:55:20.092Z,0.50
2018-12-17T02:56:20.093Z,0.30
2018-12-17T02:57:20.096Z,0.40
2018-12-17T02:58:20.100Z,0.50
2018-12-17T02:59:20.104Z,0.30
2018-12-17T03:00:20.105Z,0.50
2018-12-17T03:01:20.109Z,0.30
2018-12-17T03:02:20.111Z,0.50
2018-12-17T03:03:20.115Z,0.40
2018-12-17T03:04:20.117Z,0.60
2018-12-17T03:05:20.117Z,0.30
2018-12-17T03:06:20.130Z,0.50
2018-12-17T03:07:20.134Z,0.50
2018-12-17T03:08:20.137Z,0.40
2018-12-17T03:09:20.140Z,0.40
2018-12-17T03:10:20.137Z,0.50
2018-12-17T03:11:20.139Z,0.40
2018-12-17T03:12:20.149Z,0.40
2018-12-17T03:13:20.148Z,0.40
2018-12-17T03:14:20.145Z,0.40
2018-12-17T03:15:20.149Z,0.50
2018-12-17T03:16:20.151Z,0.40
2018-12-17T03:17:20.161Z,0.50
2018-12-17T03:18:20.156Z,0.60
2018-12-17T03:19:20.164Z,0.30
2018-12-17T03:20:20.163Z,0.50
2018-12-17T03:21:20.166Z,0.40
2018-12-17T03:22:20.170Z,0.50
2018-12-17T03:23:20.171Z,0.40
2018-12-17T03:24:20.175Z,0.40
2018-12-17T03:25:20.179Z,0.40
2018-12-17T03:26:20.180Z,0.50
2018-12-17T03:27:20.183Z,0.40
2018-12-17T03:28:20.195Z,0.30
2018-12-17T03:29:20.190Z,0.40
2018-12-17T03:30:20.251Z,0.40
2018-12-17T03:31:20.207Z,0.40
2018-12-17T03:32:20.199Z,0.40
2018-12-17T03:33:20.201Z,0.40
2018-12-17T03:34:20.206Z,0.40
2018-12-17T03:35:20.207Z,0.40
2018-12-17T03:36:20.209Z,0.50
2018-12-17T03:37:20.220Z,0.40
2018-12-17T03:38:20.216Z,0.40
2018-12-17T03:39:20.220Z,0.40
2018-12-17T03:40:20.221Z,0.40
2018-12-17T03:41:20.224Z,0.40
2018-12-17T03:42:20.228Z,0.40
2018-12-17T03:43:20.230Z,0.40
2018-12-17T03:44:20.232Z,0.40
2018-12-17T03:45:20.238Z,0.40
2018-12-17T03:46:20.243Z,0.40
2018-12-17T03:47:20.242Z,0.40
2018-12-17T03:48:20.247Z,0.40
2018-12-17T03:49:20.250Z,0.30
2018-12-17T03:50:20.251Z,0.40
2018-12-17T03:51:20.254Z,0.50
2018-12-17T03:52:20.257Z,0.40
2018-12-17T03:53:20.261Z,0.40
2018-12-17T03:54:20.264Z,0.50
2018-12-17T03:55:20.273Z,0.40
2018-12-17T03:56:20.267Z,0.40
2018-12-17T03:57:20.268Z,0.50
2018-12-17T03:58:20.274Z,0.50
2018-12-17T03:59:20.277Z,0.40
2018-12-17T04:00:20.280Z,0.40
2018-12-17T04:01:20.283Z,0.40
2018-12-17T04:02:20.291Z,0.40
2018-12-17T04:03:20.290Z,0.40
2018-12-17T04:04:20.291Z,0.40
2018-12-17T04:05:20.301Z,0.30
2018-12-17T04:06:20.303Z,0.40
2018-12-17T04:07:20.309Z,0.50
2018-12-17T04:08:20.302Z,0.40
2018-12-17T04:09:20.399Z,0.40
2018-12-17T04:10:20.308Z,0.40
2018-12-17T04:11:20.314Z,0.30
2018-12-17T04:12:20.314Z,0.40
2018-12-17T04:13:20.327Z,0.30
2018-12-17T04:14:20.321Z,0.50
2018-12-17T04:15:20.324Z,0.40
2018-12-17T04:16:20.339Z,0.30
2018-12-17T04:17:20.329Z,0.40
2018-12-17T04:18:20.337Z,0.40
2018-12-17T04:19:20.335Z,0.40
2018-12-17T04:20:20.338Z,0.40
2018-12-17T04:21:20.340Z,0.30
2018-12-17T04:22:20.345Z,0.40
2018-12-17T04:23:20.349Z,0.40
2018-12-17T04:24:20.352Z,0.50
2018-12-17T04:25:20.358Z,0.40
2018-12-17T04:26:20.360Z,0.40
2018-12-17T04:27:20.360Z,0.60
2018-12-17T04:28:20.362Z,0.40
2018-12-17T04:29:20.365Z,0.40
2018-12-17T04:30:20.367Z,0.50
2018-12-17T04:31:20.372Z,0.50
2018-12-17T04:32:20.372Z,0.40
2018-12-17T04:33:20.380Z,0.50
2018-12-17T04:34:20.378Z,0.50
2018-12-17T04:35:20.382Z,0.50
2018-12-17T04:36:20.388Z,0.30
2018-12-17T04:37:20.388Z,0.60
2018-12-17T04:38:20.391Z,0.50
2018-12-17T04:39:20.394Z,0.50
2018-12-17T04:40:20.396Z,0.50
2018-12-17T04:41:20.399Z,0.60
2018-12-17T04:42:20.404Z,0.60
2018-12-17T04:43:20.456Z,0.50
2018-12-17T04:44:20.409Z,0.40
2018-12-17T04:45:20.412Z,0.50
2018-12-17T04:46:20.416Z,0.40
2018-12-17T04:47:20.420Z,0.40
2018-12-17T04:48:20.431Z,0.50
2018-12-17T04:49:20.433Z,0.40
2018-12-17T04:50:20.429Z,0.60
2018-12-17T04:51:20.438Z,0.50
2018-12-17T04:52:20.435Z,0.50
2018-12-17T04:53:20.436Z,0.60
2018-12-17T04:54:20.438Z,0.50
2018-12-17T04:55:20.441Z,0.50
2018-12-17T04:56:20.445Z,0.50
2018-12-17T04:57:20.447Z,0.50
2018-12-17T04:58:20.451Z,0.40
2018-12-17T04:59:20.456Z,0.50
2018-12-17T05:00:20.459Z,0.40
2018-12-17T05:01:20.461Z,0.50
2018-12-17T05:02:20.461Z,0.50
2018-12-17T05:03:20.464Z,0.60
2018-12-17T05:04:20.466Z,0.50
2018-12-17T05:05:20.521Z,0.60
2018-12-17T05:06:20.524Z,0.40
2018-12-17T05:07:20.478Z,0.50
2018-12-17T05:08:20.479Z,0.50
2018-12-17T05:09:20.481Z,0.40
2018-12-17T05:10:20.489Z,0.50
2018-12-17T05:11:20.487Z,0.50
2018-12-17T05:12:20.489Z,0.70
2018-12-17T05:13:20.493Z,0.50
2018-12-17T05:14:20.496Z,0.50
2018-12-17T05:15:20.500Z,0.50
2018-12-17T05:16:20.502Z,0.50
2018-12-17T05:17:20.505Z,0.50
2018-12-17T05:18:20.521Z,0.60
2018-12-17T05:19:20.511Z,0.70
2018-12-17T05:20:20.513Z,0.60
2018-12-17T05:21:20.516Z,0.70
2018-12-17T05:22:20.524Z,0.70
2018-12-17T05:23:20.526Z,0.70
2018-12-17T05:24:20.533Z,0.70
2018-12-17T05:25:20.580Z,0.70
2018-12-17T05:26:20.534Z,0.70
2018-12-17T05:27:20.539Z,0.80
2018-12-17T05:28:20.537Z,0.70
2018-12-17T05:29:21.709Z,0.70
2018-12-17T05:30:20.543Z,0.80
2018-12-17T05:31:20.644Z,0.80
2018-12-17T05:32:20.561Z,0.80
2018-12-17T05:33:20.556Z,0.70
2018-12-17T05:34:20.554Z,0.70
2018-12-17T05:35:20.572Z,0.80
2018-12-17T05:36:20.560Z,0.70
2018-12-17T05:37:20.562Z,0.60
2018-12-17T05:38:20.567Z,0.70
2018-12-17T05:39:20.572Z,0.70
2018-12-17T05:40:20.572Z,0.60
2018-12-17T05:41:20.576Z,0.60
2018-12-17T05:42:20.594Z,0.60
2018-12-17T05:43:20.584Z,0.60
2018-12-17T05:44:20.584Z,0.60
2018-12-17T05:45:20.588Z,0.70
2018-12-17T05:46:20.646Z,0.60
2018-12-17T05:47:20.622Z,0.60
2018-12-17T05:48:20.596Z,0.70
2018-12-17T05:49:20.607Z,0.70
2018-12-17T05:50:20.603Z,0.90
2018-12-17T05:51:20.608Z,0.80
2018-12-17T05:52:20.610Z,0.70
2018-12-17T05:53:20.614Z,0.80
2018-12-17T05:54:20.615Z,0.90
2018-12-17T05:55:20.619Z,0.70
2018-12-17T05:56:20.621Z,0.70
2018-12-17T05:57:20.626Z,0.60
2018-12-17T05:58:20.627Z,0.70
2018-12-17T05:59:20.633Z,0.80
2018-12-17T06:00:20.683Z,0.60
2018-12-17T06:01:20.635Z,0.70
2018-12-17T06:02:20.690Z,0.70
2018-12-17T06:03:20.643Z,0.80
2018-12-17T06:04:20.645Z,0.80
2018-12-17T06:05:20.648Z,0.80
2018-12-17T06:06:20.659Z,0.70
2018-12-17T06:07:20.656Z,0.60
2018-12-17T06:08:20.658Z,0.80
2018-12-17T06:09:20.666Z,1.10
2018-12-17T06:10:20.665Z,0.80
2018-12-17T06:11:20.668Z,0.70
2018-12-17T06:12:20.670Z,0.80
2018-12-17T06:13:20.675Z,0.90
2018-12-17T06:14:20.678Z,0.90
2018-12-17T06:15:20.682Z,0.80
2018-12-17T06:16:20.683Z,0.70
2018-12-17T06:17:20.687Z,0.70
2018-12-17T06:18:20.690Z,0.70
2018-12-17T06:19:20.693Z,0.70
2018-12-17T06:20:20.697Z,0.60
2018-12-17T06:21:20.700Z,0.60
2018-12-17T06:22:20.703Z,0.70
2018-12-17T06:23:20.706Z,0.70
2018-12-17T06:24:20.765Z,0.70
2018-12-17T06:25:20.716Z,0.70
2018-12-17T06:26:20.716Z,0.70
2018-12-17T06:27:20.722Z,0.70
2018-12-17T06:28:20.721Z,0.70
2018-12-17T06:29:20.727Z,0.70
2018-12-17T06:30:20.783Z,0.60
2018-12-17T06:31:20.732Z,0.80
2018-12-17T06:32:20.735Z,0.80
2018-12-17T06:33:20.738Z,0.80
2018-12-17T06:34:20.744Z,0.70
2018-12-17T06:35:20.744Z,0.70
2018-12-17T06:36:20.747Z,0.60
2018-12-17T06:37:20.749Z,0.60
2018-12-17T06:38:20.753Z,0.60
2018-12-17T06:39:20.759Z,0.70
2018-12-17T06:40:20.759Z,0.70
2018-12-17T06:41:20.766Z,0.70
2018-12-17T06:42:20.766Z,0.70
2018-12-17T06:43:20.769Z,0.60
2018-12-17T06:44:20.772Z,0.80
2018-12-17T06:45:20.775Z,0.70
2018-12-17T06:46:20.780Z,0.70
2018-12-17T06:47:20.782Z,0.60
2018-12-17T06:48:20.784Z,0.70
2018-12-17T06:49:20.788Z,0.80
2018-12-17T06:50:20.794Z,0.60
2018-12-17T06:51:20.845Z,0.60
2018-12-17T06:52:20.796Z,0.70
2018-12-17T06:53:20.801Z,0.50
2018-12-17T06:54:20.806Z,0.60
2018-12-17T06:55:20.808Z,0.70
2018-12-17T06:56:20.810Z,0.70
2018-12-17T06:57:20.814Z,0.60
2018-12-17T06:58:20.818Z,0.70
2018-12-17T06:59:20.822Z,0.50
2018-12-17T07:00:20.874Z,0.60
2018-12-17T07:01:20.878Z,0.60
2018-12-17T07:02:20.881Z,0.80
2018-12-17T07:03:20.834Z,0.60
2018-12-17T07:04:20.836Z,0.60
2018-12-17T07:05:20.840Z,0.70
2018-12-17T07:06:20.844Z,0.70
2018-12-17T07:07:20.897Z,0.80
2018-12-17T07:08:20.850Z,0.70
2018-12-17T07:09:21.003Z,0.60
2018-12-17T07:10:20.857Z,0.80
2018-12-17T07:11:20.861Z,0.70
2018-12-17T07:12:20.864Z,0.70
2018-12-17T07:13:20.866Z,0.70
2018-12-17T07:14:20.869Z,0.70
2018-12-17T07:15:20.873Z,0.80
2018-12-17T07:16:21.025Z,0.90
2018-12-17T07:17:20.880Z,0.80
2018-12-17T07:18:20.881Z,0.80
2018-12-17T07:19:20.885Z,0.70
2018-12-17T07:20:20.888Z,0.90
2018-12-17T07:21:20.939Z,0.80
2018-12-17T07:22:20.899Z,0.70
2018-12-17T07:23:20.902Z,0.80
2018-12-17T07:24:20.904Z,1.00
2018-12-17T07:25:20.957Z,1.10
2018-12-17T07:26:21.008Z,0.90
2018-12-17T07:27:20.924Z,0.80
2018-12-17T07:28:20.912Z,0.70
2018-12-17T07:29:20.917Z,0.80
2018-12-17T07:30:20.922Z,1.00
2018-12-17T07:31:20.924Z,0.80
2018-12-17T07:32:20.927Z,1.10
2018-12-17T07:33:20.931Z,0.80
2018-12-17T07:34:20.934Z,1.00
2018-12-17T07:35:20.937Z,0.90
2018-12-17T07:36:20.990Z,1.10
2018-12-17T07:37:20.943Z,1.00
2018-12-17T07:38:20.947Z,1.20
2018-12-17T07:39:20.999Z,0.90
2018-12-17T07:40:20.952Z,1.00
2018-12-17T07:41:20.955Z,1.00
2018-12-17T07:42:20.959Z,0.90
2018-12-17T07:43:20.961Z,0.90
2018-12-17T07:44:20.964Z,1.00
2018-12-17T07:45:20.970Z,1.20
2018-12-17T07:46:21.427Z,1.00
2018-12-17T07:47:21.081Z,1.10
2018-12-17T07:48:20.992Z,1.00
2018-12-17T07:49:20.983Z,0.90
2018-12-17T07:50:20.986Z,0.90
2018-12-17T07:51:20.989Z,0.90
2018-12-17T07:52:20.993Z,1.00
2018-12-17T07:53:20.995Z,0.90
2018-12-17T07:54:20.999Z,1.00
2018-12-17T07:55:21.002Z,0.90
2018-12-17T07:56:21.105Z,1.00
2018-12-17T07:57:21.010Z,1.00
2018-12-17T07:58:21.012Z,1.20
2018-12-17T07:59:21.022Z,1.10
2018-12-17T08:00:21.018Z,1.00
2018-12-17T08:01:21.173Z,0.90
2018-12-17T08:02:21.025Z,0.90
2018-12-17T08:03:21.026Z,1.00
2018-12-17T08:04:21.031Z,1.00
2018-12-17T08:05:21.036Z,1.00
2018-12-17T08:06:21.037Z,1.10
2018-12-17T08:07:21.043Z,0.90
2018-12-17T08:08:21.044Z,1.00
2018-12-17T08:09:21.048Z,0.90
2018-12-17T08:10:21.051Z,1.20
2018-12-17T08:11:21.204Z,0.80
2018-12-17T08:12:21.061Z,1.00
2018-12-17T08:13:21.062Z,1.20
2018-12-17T08:14:21.064Z,1.00
2018-12-17T08:15:21.119Z,1.00
2018-12-17T08:16:21.370Z,1.10
2018-12-17T08:17:21.076Z,0.90
2018-12-17T08:18:21.077Z,1.00
2018-12-17T08:19:21.081Z,1.00
2018-12-17T08:20:21.084Z,1.20
2018-12-17T08:21:21.138Z,1.20
2018-12-17T08:22:21.090Z,1.00
2018-12-17T08:23:21.095Z,1.00
2018-12-17T08:24:21.097Z,1.00
2018-12-17T08:25:21.100Z,1.10
2018-12-17T08:26:21.105Z,0.90
2018-12-17T08:27:21.112Z,1.00
2018-12-17T08:28:21.111Z,1.00
2018-12-17T08:29:21.114Z,1.00
2018-12-17T08:30:21.116Z,1.00
2018-12-17T08:31:21.369Z,1.00
2018-12-17T08:32:21.124Z,1.00
2018-12-17T08:33:21.136Z,1.10
2018-12-17T08:34:21.179Z,1.40
2018-12-17T08:35:21.135Z,0.90
2018-12-17T08:36:21.139Z,1.10
2018-12-17T08:37:21.140Z,1.00
2018-12-17T08:38:21.153Z,0.90
2018-12-17T08:39:21.146Z,1.00
2018-12-17T08:40:21.149Z,0.80
2018-12-17T08:41:21.159Z,0.80
2018-12-17T08:42:21.163Z,1.00
2018-12-17T08:43:21.220Z,1.00
2018-12-17T08:44:21.163Z,0.80
2018-12-17T08:45:21.217Z,1.10
2018-12-17T08:46:21.171Z,0.90
2018-12-17T08:47:21.174Z,0.80
2018-12-17T08:48:21.205Z,0.80
2018-12-17T08:49:21.180Z,1.10
2018-12-17T08:50:21.184Z,0.90
2018-12-17T08:51:21.505Z,0.80
2018-12-17T08:52:21.243Z,0.70
2018-12-17T08:53:21.195Z,0.80
2018-12-17T08:54:21.196Z,1.00
2018-12-17T08:55:21.253Z,1.10
2018-12-17T08:56:21.204Z,0.90
2018-12-17T08:57:21.209Z,0.80
2018-12-17T08:58:21.209Z,1.10
2018-12-17T08:59:21.218Z,0.60
2018-12-17T09:00:21.371Z,0.90
2018-12-17T09:01:21.423Z,0.80
2018-12-17T09:02:21.225Z,0.90
2018-12-17T09:03:21.280Z,0.90
2018-12-17T09:04:21.335Z,0.80
2018-12-17T09:05:21.287Z,0.80
2018-12-17T09:06:21.246Z,0.80
2018-12-17T09:07:21.246Z,0.80
2018-12-17T09:08:21.296Z,0.80
2018-12-17T09:09:21.349Z,0.80
2018-12-17T09:10:21.252Z,1.10
2018-12-17T09:11:21.357Z,0.70
2018-12-17T09:12:21.259Z,0.60
2018-12-17T09:13:21.265Z,0.60
2018-12-17T09:14:21.267Z,0.60
2018-12-17T09:15:21.271Z,0.70
2018-12-17T09:16:21.272Z,0.70
2018-12-17T09:17:21.274Z,0.70
2018-12-17T09:18:21.280Z,0.70
2018-12-17T09:19:21.283Z,0.60
2018-12-17T09:20:21.286Z,0.60
2018-12-17T09:21:21.289Z,0.50
2018-12-17T09:22:21.348Z,1.20
2018-12-17T09:23:21.295Z,0.60
2018-12-17T09:24:21.350Z,0.60
2018-12-17T09:25:21.303Z,0.50
2018-12-17T09:26:21.308Z,0.70
2018-12-17T09:27:21.310Z,0.70
2018-12-17T09:28:21.318Z,0.50
2018-12-17T09:29:21.416Z,0.60
2018-12-17T09:30:21.321Z,0.60
2018-12-17T09:31:21.325Z,0.60
2018-12-17T09:32:21.332Z,0.60
2018-12-17T09:33:21.333Z,0.40
2018-12-17T09:34:21.383Z,0.50
2018-12-17T09:35:21.338Z,0.50
2018-12-17T09:36:21.389Z,0.50
2018-12-17T09:37:21.345Z,0.90
2018-12-17T09:38:21.346Z,0.50
2018-12-17T09:39:21.350Z,0.40
2018-12-17T09:40:21.355Z,0.50
2018-12-17T09:41:21.610Z,0.60
2018-12-17T09:42:21.361Z,0.60
2018-12-17T09:43:21.366Z,0.40
2018-12-17T09:44:21.367Z,0.40
2018-12-17T09:45:21.470Z,0.50
2018-12-17T09:46:21.441Z,0.60
2018-12-17T09:47:21.377Z,0.50
2018-12-17T09:48:21.379Z,0.70
2018-12-17T09:49:21.443Z,0.50
2018-12-17T09:50:21.387Z,0.50
2018-12-17T09:51:21.392Z,0.50
2018-12-17T09:52:21.401Z,0.50
2018-12-17T09:53:21.396Z,0.50
2018-12-17T09:54:21.407Z,0.60
2018-12-17T09:55:21.403Z,0.70
2018-12-17T09:56:21.406Z,0.60
2018-12-17T09:57:21.414Z,0.60
2018-12-17T09:58:21.416Z,0.60
2018-12-17T09:59:21.417Z,0.70
2018-12-17T10:00:25.390Z,0.60
2018-12-17T10:01:21.423Z,0.70
2018-12-17T10:02:21.425Z,0.60
2018-12-17T10:03:21.428Z,0.60
2018-12-17T10:04:21.437Z,0.70
2018-12-17T10:05:21.438Z,0.60
2018-12-17T10:06:21.539Z,0.70
2018-12-17T10:07:21.443Z,0.70
2018-12-17T10:08:21.547Z,0.70
2018-12-17T10:09:21.451Z,0.90
2018-12-17T10:10:21.453Z,0.90
2018-12-17T10:11:21.709Z,0.80
2018-12-17T10:12:21.460Z,0.80
2018-12-17T10:13:21.574Z,0.70
2018-12-17T10:14:21.517Z,0.70
2018-12-17T10:15:21.469Z,0.60
2018-12-17T10:16:21.472Z,0.60
2018-12-17T10:17:21.476Z,0.70
2018-12-17T10:18:21.480Z,0.70
2018-12-17T10:19:21.483Z,0.80
2018-12-17T10:20:21.492Z,0.70
2018-12-17T10:21:21.541Z,0.60
2018-12-17T10:22:21.494Z,0.60
2018-12-17T10:23:21.496Z,0.70
2018-12-17T10:24:21.549Z,0.70
2018-12-17T10:25:21.504Z,0.50
2018-12-17T10:26:21.506Z,1.00
2018-12-17T10:27:21.511Z,0.80
2018-12-17T10:28:21.513Z,0.80
2018-12-17T10:29:21.566Z,0.60
2018-12-17T10:30:21.521Z,0.60
2018-12-17T10:31:21.673Z,1.00
2018-12-17T10:32:21.527Z,0.60
2018-12-17T10:33:21.538Z,0.90
2018-12-17T10:34:21.583Z,0.80
2018-12-17T10:35:21.536Z,0.60
2018-12-17T10:36:21.640Z,0.60
2018-12-17T10:37:21.545Z,0.80
2018-12-17T10:38:21.547Z,0.70
2018-12-17T10:39:21.551Z,0.70
2018-12-17T10:40:21.552Z,0.60
2018-12-17T10:41:21.832Z,0.70
2018-12-17T10:42:21.559Z,0.70
2018-12-17T10:43:21.563Z,0.70
2018-12-17T10:44:21.564Z,0.70
2018-12-17T10:45:21.575Z,0.60
2018-12-17T10:46:21.572Z,0.60
2018-12-17T10:47:21.630Z,0.80
2018-12-17T10:48:21.578Z,0.70
2018-12-17T10:49:21.582Z,0.70
2018-12-17T10:50:21.586Z,0.60
2018-12-17T10:51:21.591Z,0.70
2018-12-17T10:52:21.654Z,0.70
2018-12-17T10:53:21.706Z,0.60
2018-12-17T10:54:21.597Z,0.60
2018-12-17T10:55:21.603Z,0.60
2018-12-17T10:56:21.656Z,0.70
2018-12-17T10:57:21.611Z,0.70
2018-12-17T10:58:21.611Z,0.70
2018-12-17T10:59:21.616Z,0.70
2018-12-17T11:00:21.674Z,0.70
2018-12-17T11:01:21.621Z,0.70
2018-12-17T11:02:21.625Z,0.50
2018-12-17T11:03:21.629Z,0.70
2018-12-17T11:04:21.630Z,0.80
2018-12-17T11:05:21.637Z,0.80
2018-12-17T11:06:21.639Z,0.70
2018-12-17T11:07:21.642Z,0.60
2018-12-17T11:08:21.648Z,0.60
2018-12-17T11:09:21.702Z,0.60
2018-12-17T11:10:21.806Z,0.70
2018-12-17T11:11:22.004Z,0.80
2018-12-17T11:12:21.759Z,0.60
2018-12-17T11:13:21.663Z,0.80
2018-12-17T11:14:21.664Z,0.60
2018-12-17T11:15:21.670Z,0.60
2018-12-17T11:16:21.672Z,0.60
2018-12-17T11:17:21.727Z,0.60
2018-12-17T11:18:21.678Z,0.70
2018-12-17T11:19:21.683Z,0.60
2018-12-17T11:20:21.734Z,0.70
2018-12-17T11:21:21.845Z,0.70
2018-12-17T11:22:21.742Z,0.60
2018-12-17T11:23:21.696Z,0.80
2018-12-17T11:24:21.698Z,0.70
2018-12-17T11:25:21.701Z,0.60
2018-12-17T11:26:21.755Z,0.70
2018-12-17T11:27:21.711Z,0.60
2018-12-17T11:28:21.762Z,0.80
2018-12-17T11:29:21.728Z,0.60
2018-12-17T11:30:21.770Z,0.70
2018-12-17T11:31:21.726Z,0.60
2018-12-17T11:32:21.725Z,0.70
2018-12-17T11:33:21.781Z,0.80
2018-12-17T11:34:21.783Z,0.60
2018-12-17T11:35:21.786Z,0.70
2018-12-17T11:36:21.790Z,0.70
2018-12-17T11:37:21.799Z,0.90
2018-12-17T11:38:21.753Z,0.90
2018-12-17T11:39:21.752Z,0.80
2018-12-17T11:40:21.753Z,0.80
2018-12-17T11:41:21.754Z,0.60
2018-12-17T11:42:21.759Z,0.80
2018-12-17T11:43:21.770Z,0.70
2018-12-17T11:44:21.764Z,0.60
2018-12-17T11:45:21.779Z,0.60
2018-12-17T11:46:21.774Z,0.70
2018-12-17T11:47:21.776Z,0.70
2018-12-17T11:48:21.777Z,0.90
2018-12-17T11:49:21.783Z,0.70
2018-12-17T11:50:21.785Z,0.60
2018-12-17T11:51:21.791Z,0.60
2018-12-17T11:52:21.794Z,0.80
2018-12-17T11:53:21.796Z,0.60
2018-12-17T11:54:21.800Z,0.60
2018-12-17T11:55:21.808Z,0.60
2018-12-17T11:56:21.813Z,0.60
2018-12-17T11:57:21.810Z,0.60
2018-12-17T11:58:21.822Z,0.60
2018-12-17T11:59:21.817Z,0.60
2018-12-17T12:00:21.822Z,0.80
2018-12-17T12:01:21.825Z,0.50
2018-12-17T12:02:21.826Z,0.70
2018-12-17T12:03:21.829Z,0.70
2018-12-17T12:04:21.832Z,0.60
2018-12-17T12:05:21.835Z,0.60
2018-12-17T12:06:21.840Z,0.50
2018-12-17T12:07:21.844Z,0.70
2018-12-17T12:08:21.846Z,0.70
2018-12-17T12:09:21.848Z,0.60
2018-12-17T12:10:21.858Z,0.80
2018-12-17T12:11:21.857Z,0.80
2018-12-17T12:12:21.858Z,0.70
2018-12-17T12:13:21.861Z,0.80
2018-12-17T12:14:21.865Z,0.70
2018-12-17T12:15:21.869Z,0.70
2018-12-17T12:16:21.873Z,0.50
2018-12-17T12:17:21.889Z,0.70
2018-12-17T12:18:21.889Z,0.70
2018-12-17T12:19:21.892Z,0.80
2018-12-17T12:20:21.893Z,0.60
2018-12-17T12:21:21.889Z,0.70
2018-12-17T12:22:21.897Z,0.90
2018-12-17T12:23:21.907Z,0.70
2018-12-17T12:24:21.902Z,0.80
2018-12-17T12:25:21.899Z,0.80
2018-12-17T12:26:21.906Z,0.70
2018-12-17T12:27:21.914Z,0.90
2018-12-17T12:28:21.910Z,0.60
2018-12-17T12:29:21.913Z,0.80
2018-12-17T12:30:21.919Z,0.60
2018-12-17T12:31:21.937Z,0.90
2018-12-17T12:32:21.924Z,0.70
2018-12-17T12:33:21.927Z,0.60
2018-12-17T12:34:21.932Z,0.70
2018-12-17T12:35:21.933Z,0.80
2018-12-17T12:36:21.938Z,0.80
2018-12-17T12:37:21.941Z,0.50
2018-12-17T12:38:21.944Z,0.70
2018-12-17T12:39:21.948Z,0.90
2018-12-17T12:40:21.950Z,0.80
2018-12-17T12:41:21.963Z,0.90
2018-12-17T12:42:21.960Z,0.70
2018-12-17T12:43:21.965Z,0.70
2018-12-17T12:44:21.963Z,0.90
2018-12-17T12:45:21.967Z,0.70
2018-12-17T12:46:21.972Z,0.80
2018-12-17T12:47:21.978Z,0.70
2018-12-17T12:48:21.977Z,0.80
2018-12-17T12:49:21.979Z,0.90
2018-12-17T12:50:21.986Z,0.80
2018-12-17T12:51:21.991Z,0.70
2018-12-17T12:52:21.990Z,0.80
2018-12-17T12:53:21.993Z,0.80
2018-12-17T12:54:22.003Z,0.70
2018-12-17T12:55:22.007Z,0.80
2018-12-17T12:56:22.009Z,0.50
2018-12-17T12:57:22.007Z,0.60
2018-12-17T12:58:22.012Z,0.60
2018-12-17T12:59:22.014Z,0.70
2018-12-17T13:00:22.015Z,0.60
2018-12-17T13:01:22.022Z,0.50
2018-12-17T13:02:22.023Z,0.60
2018-12-17T13:03:22.028Z,0.70
2018-12-17T13:04:22.029Z,0.60
2018-12-17T13:05:22.032Z,0.50
2018-12-17T13:06:22.045Z,0.60
2018-12-17T13:07:22.040Z,0.60
2018-12-17T13:08:22.043Z,0.60
2018-12-17T13:09:22.047Z,0.50
2018-12-17T13:10:22.051Z,0.90
2018-12-17T13:11:22.053Z,0.60
2018-12-17T13:12:22.057Z,0.60
2018-12-17T13:13:22.060Z,0.60
2018-12-17T13:14:22.064Z,0.50
2018-12-17T13:15:22.067Z,0.60
2018-12-17T13:16:22.071Z,0.50
2018-12-17T13:17:22.081Z,0.70
2018-12-17T13:18:22.076Z,0.50